Terminal Aerodrome Forecast
Issued by NWS

Home | Current Version | Previous Version | Text Only | Print | Product List | Glossary On
Versions: 1 2 3 4 5 6 7 8 9 10 11 12 13 14
105
FTUS43 KLSX 110536
TAFSUS
TAF
KSUS 110536Z 1106/1206 VRB03KT P6SM SCT150
     FM111500 21007KT P6SM SCT150
     FM111700 24013G23KT P6SM SCT150
     FM112000 28015G26KT P6SM SCT200
     FM112200 30014G24KT P6SM BKN100
     FM120100 30013G23KT P6SM BKN030=

USA.gov is the U.S. government's official web portal to all federal, state and local government web resources and services.